sensor_id;sensor_type;location;lat;lon;timestamp;temperature;humidity
5556;DHT22;2801;50.972;7.856;2023-05-10T00:01:01;11.70;99.90
5556;DHT22;2801;50.972;7.856;2023-05-10T00:03:29;11.70;99.90
5556;DHT22;2801;50.972;7.856;2023-05-10T00:05:56;11.60;99.90
5556;DHT22;2801;50.972;7.856;2023-05-10T00:08:23;11.70;99.90
5556;DHT22;2801;50.972;7.856;2023-05-10T00:10:50;11.70;99.90
5556;DHT22;2801;50.972;7.856;2023-05-10T00:13:17;11.70;99.90
5556;DHT22;2801;50.972;7.856;2023-05-10T00:15:44;11.70;99.90
5556;DHT22;2801;50.972;7.856;2023-05-10T00:18:11;11.70;99.90
5556;DHT22;2801;50.972;7.856;2023-05-10T00:20:38;11.70;99.90
5556;DHT22;2801;50.972;7.856;2023-05-10T00:23:05;11.70;99.90
5556;DHT22;2801;50.972;7.856;2023-05-10T00:25:32;11.70;99.90
5556;DHT22;2801;50.972;7.856;2023-05-10T00:27:59;11.70;99.90
5556;DHT22;2801;50.972;7.856;2023-05-10T00:30:27;11.70;99.90
5556;DHT22;2801;50.972;7.856;2023-05-10T00:32:54;11.70;99.90
5556;DHT22;2801;50.972;7.856;2023-05-10T00:35:21;11.80;99.90
5556;DHT22;2801;50.972;7.856;2023-05-10T00:37:49;11.80;99.90
5556;DHT22;2801;50.972;7.856;2023-05-10T00:40:15;11.80;99.90
5556;DHT22;2801;50.972;7.856;2023-05-10T00:42:43;11.80;99.90
5556;DHT22;2801;50.972;7.856;2023-05-10T00:45:10;11.80;99.90
5556;DHT22;2801;50.972;7.856;2023-05-10T00:47:38;11.80;99.90
5556;DHT22;2801;50.972;7.856;2023-05-10T00:50:06;11.80;99.90
5556;DHT22;2801;50.972;7.856;2023-05-10T00:52:33;11.80;99.90
5556;DHT22;2801;50.972;7.856;2023-05-10T00:55:00;11.80;99.90
5556;DHT22;2801;50.972;7.856;2023-05-10T00:57:28;11.80;99.90
5556;DHT22;2801;50.972;7.856;2023-05-10T00:59:55;11.80;99.90
5556;DHT22;2801;50.972;7.856;2023-05-10T01:02:22;11.80;99.90
5556;DHT22;2801;50.972;7.856;2023-05-10T01:04:49;11.80;99.90
5556;DHT22;2801;50.972;7.856;2023-05-10T01:07:16;11.70;99.90
5556;DHT22;2801;50.972;7.856;2023-05-10T01:09:43;11.70;99.90
5556;DHT22;2801;50.972;7.856;2023-05-10T01:12:10;11.70;99.90
5556;DHT22;2801;50.972;7.856;2023-05-10T01:14:37;11.70;99.90
5556;DHT22;2801;50.972;7.856;2023-05-10T01:17:05;11.60;99.90
5556;DHT22;2801;50.972;7.856;2023-05-10T01:19:34;11.70;99.90
5556;DHT22;2801;50.972;7.856;2023-05-10T01:34:52;11.50;99.90
5556;DHT22;2801;50.972;7.856;2023-05-10T01:37:45;11.50;99.90
5556;DHT22;2801;50.972;7.856;2023-05-10T01:40:26;11.40;99.90
5556;DHT22;2801;50.972;7.856;2023-05-10T01:43:02;11.40;99.90
5556;DHT22;2801;50.972;7.856;2023-05-10T01:45:45;11.40;99.90
5556;DHT22;2801;50.972;7.856;2023-05-10T01:48:18;11.40;99.90
5556;DHT22;2801;50.972;7.856;2023-05-10T01:50:46;11.40;99.90
5556;DHT22;2801;50.972;7.856;2023-05-10T01:53:18;11.40;99.90
5556;DHT22;2801;50.972;7.856;2023-05-10T01:55:52;11.40;99.90
5556;DHT22;2801;50.972;7.856;2023-05-10T01:58:25;11.40;99.90
5556;DHT22;2801;50.972;7.856;2023-05-10T02:00:58;11.40;99.90
5556;DHT22;2801;50.972;7.856;2023-05-10T02:03:28;11.50;99.90
5556;DHT22;2801;50.972;7.856;2023-05-10T02:05:58;11.40;99.90
5556;DHT22;2801;50.972;7.856;2023-05-10T02:08:26;11.50;99.90
5556;DHT22;2801;50.972;7.856;2023-05-10T02:10:55;11.40;99.90
5556;DHT22;2801;50.972;7.856;2023-05-10T02:13:25;11.50;99.90
5556;DHT22;2801;50.972;7.856;2023-05-10T02:15:54;11.50;99.90
5556;DHT22;2801;50.972;7.856;2023-05-10T02:18:24;11.50;99.90
5556;DHT22;2801;50.972;7.856;2023-05-10T02:20:54;11.50;99.90
5556;DHT22;2801;50.972;7.856;2023-05-10T02:23:22;11.50;99.90
5556;DHT22;2801;50.972;7.856;2023-05-10T02:25:51;11.60;99.90
5556;DHT22;2801;50.972;7.856;2023-05-10T02:28:21;11.60;99.90
5556;DHT22;2801;50.972;7.856;2023-05-10T02:30:51;11.60;99.90
5556;DHT22;2801;50.972;7.856;2023-05-10T02:33:20;11.60;99.90
5556;DHT22;2801;50.972;7.856;2023-05-10T02:35:50;11.60;99.90
5556;DHT22;2801;50.972;7.856;2023-05-10T02:38:19;11.60;99.90
5556;DHT22;2801;50.972;7.856;2023-05-10T02:40:48;11.60;99.90
5556;DHT22;2801;50.972;7.856;2023-05-10T02:43:17;11.50;99.90
5556;DHT22;2801;50.972;7.856;2023-05-10T02:45:47;11.60;99.90
5556;DHT22;2801;50.972;7.856;2023-05-10T02:48:15;11.60;99.90
5556;DHT22;2801;50.972;7.856;2023-05-10T02:50:46;11.60;99.90
5556;DHT22;2801;50.972;7.856;2023-05-10T02:53:23;11.60;99.90
5556;DHT22;2801;50.972;7.856;2023-05-10T02:56:13;11.60;99.90
5556;DHT22;2801;50.972;7.856;2023-05-10T02:58:43;11.60;99.90
5556;DHT22;2801;50.972;7.856;2023-05-10T03:01:10;11.60;99.90
5556;DHT22;2801;50.972;7.856;2023-05-10T03:03:37;11.60;99.90
5556;DHT22;2801;50.972;7.856;2023-05-10T03:06:04;11.60;99.90
5556;DHT22;2801;50.972;7.856;2023-05-10T03:08:31;11.60;99.90
5556;DHT22;2801;50.972;7.856;2023-05-10T03:20:15;11.60;99.90
5556;DHT22;2801;50.972;7.856;2023-05-10T03:22:51;11.60;99.90
5556;DHT22;2801;50.972;7.856;2023-05-10T03:25:22;11.60;99.90
5556;DHT22;2801;50.972;7.856;2023-05-10T03:27:51;11.60;99.90
5556;DHT22;2801;50.972;7.856;2023-05-10T03:30:19;11.60;99.90
5556;DHT22;2801;50.972;7.856;2023-05-10T03:32:46;11.60;99.90
5556;DHT22;2801;50.972;7.856;2023-05-10T03:35:13;11.60;99.90
5556;DHT22;2801;50.972;7.856;2023-05-10T03:37:40;11.60;99.90
5556;DHT22;2801;50.972;7.856;2023-05-10T03:40:09;11.60;99.90
5556;DHT22;2801;50.972;7.856;2023-05-10T03:42:36;11.60;99.90
5556;DHT22;2801;50.972;7.856;2023-05-10T03:45:03;11.60;99.90
5556;DHT22;2801;50.972;7.856;2023-05-10T03:47:30;11.70;99.90
5556;DHT22;2801;50.972;7.856;2023-05-10T03:49:58;11.70;99.90
5556;DHT22;2801;50.972;7.856;2023-05-10T03:52:25;11.70;99.90
5556;DHT22;2801;50.972;7.856;2023-05-10T03:54:51;11.70;99.90
5556;DHT22;2801;50.972;7.856;2023-05-10T03:57:18;11.70;99.90
5556;DHT22;2801;50.972;7.856;2023-05-10T03:59:45;11.70;99.90
5556;DHT22;2801;50.972;7.856;2023-05-10T04:02:12;11.70;99.90
5556;DHT22;2801;50.972;7.856;2023-05-10T04:04:39;11.70;99.90
5556;DHT22;2801;50.972;7.856;2023-05-10T04:07:06;11.70;99.90
5556;DHT22;2801;50.972;7.856;2023-05-10T04:09:33;11.70;99.90
5556;DHT22;2801;50.972;7.856;2023-05-10T04:12:00;11.70;99.90
5556;DHT22;2801;50.972;7.856;2023-05-10T04:14:28;11.70;99.90
5556;DHT22;2801;50.972;7.856;2023-05-10T04:16:55;11.70;99.90
5556;DHT22;2801;50.972;7.856;2023-05-10T04:19:22;11.70;99.90
5556;DHT22;2801;50.972;7.856;2023-05-10T04:21:49;11.70;99.90
5556;DHT22;2801;50.972;7.856;2023-05-10T04:24:16;11.80;99.90
5556;DHT22;2801;50.972;7.856;2023-05-10T04:26:43;11.70;99.90
5556;DHT22;2801;50.972;7.856;2023-05-10T04:29:10;11.80;99.90
5556;DHT22;2801;50.972;7.856;2023-05-10T04:31:37;11.80;99.90
5556;DHT22;2801;50.972;7.856;2023-05-10T04:34:04;11.80;99.90
5556;DHT22;2801;50.972;7.856;2023-05-10T04:36:31;11.80;99.90
5556;DHT22;2801;50.972;7.856;2023-05-10T04:39:03;11.80;99.90
5556;DHT22;2801;50.972;7.856;2023-05-10T04:41:30;11.70;99.90
5556;DHT22;2801;50.972;7.856;2023-05-10T04:43:57;11.80;99.90
5556;DHT22;2801;50.972;7.856;2023-05-10T04:46:24;11.70;99.90
5556;DHT22;2801;50.972;7.856;2023-05-10T04:48:51;11.70;99.90
5556;DHT22;2801;50.972;7.856;2023-05-10T04:51:18;11.60;99.90
5556;DHT22;2801;50.972;7.856;2023-05-10T04:53:45;11.60;99.90
5556;DHT22;2801;50.972;7.856;2023-05-10T04:56:30;11.70;99.90
5556;DHT22;2801;50.972;7.856;2023-05-10T04:58:57;11.70;99.90
5556;DHT22;2801;50.972;7.856;2023-05-10T05:01:24;11.70;99.90
5556;DHT22;2801;50.972;7.856;2023-05-10T05:03:51;11.70;99.90
5556;DHT22;2801;50.972;7.856;2023-05-10T05:06:19;11.70;99.90
5556;DHT22;2801;50.972;7.856;2023-05-10T05:08:47;11.70;99.90
5556;DHT22;2801;50.972;7.856;2023-05-10T05:11:16;11.70;99.90
5556;DHT22;2801;50.972;7.856;2023-05-10T05:13:44;11.80;99.90
5556;DHT22;2801;50.972;7.856;2023-05-10T05:16:11;11.80;99.90
5556;DHT22;2801;50.972;7.856;2023-05-10T05:18:38;11.80;99.90
5556;DHT22;2801;50.972;7.856;2023-05-10T05:21:15;11.80;99.90
5556;DHT22;2801;50.972;7.856;2023-05-10T05:23:43;11.90;99.90
5556;DHT22;2801;50.972;7.856;2023-05-10T05:26:11;11.90;99.90
5556;DHT22;2801;50.972;7.856;2023-05-10T05:28:38;11.90;99.90
5556;DHT22;2801;50.972;7.856;2023-05-10T05:31:06;11.90;99.90
5556;DHT22;2801;50.972;7.856;2023-05-10T05:33:37;11.90;99.90
5556;DHT22;2801;50.972;7.856;2023-05-10T05:36:05;12.00;99.90
5556;DHT22;2801;50.972;7.856;2023-05-10T05:38:32;12.00;99.90
5556;DHT22;2801;50.972;7.856;2023-05-10T05:40:59;12.10;99.90
5556;DHT22;2801;50.972;7.856;2023-05-10T05:43:26;12.20;99.90
5556;DHT22;2801;50.972;7.856;2023-05-10T05:45:53;12.20;99.90
5556;DHT22;2801;50.972;7.856;2023-05-10T05:48:20;12.20;99.90
5556;DHT22;2801;50.972;7.856;2023-05-10T05:50:47;12.30;99.90
5556;DHT22;2801;50.972;7.856;2023-05-10T05:53:14;12.30;99.90
5556;DHT22;2801;50.972;7.856;2023-05-10T05:55:55;12.40;99.90
5556;DHT22;2801;50.972;7.856;2023-05-10T05:58:25;12.50;99.90
5556;DHT22;2801;50.972;7.856;2023-05-10T06:00:52;12.50;99.90
5556;DHT22;2801;50.972;7.856;2023-05-10T06:03:19;12.40;99.90
5556;DHT22;2801;50.972;7.856;2023-05-10T06:05:47;12.40;99.90
5556;DHT22;2801;50.972;7.856;2023-05-10T06:08:14;12.40;99.90
5556;DHT22;2801;50.972;7.856;2023-05-10T06:10:41;12.50;99.90
5556;DHT22;2801;50.972;7.856;2023-05-10T06:13:08;12.60;99.90
5556;DHT22;2801;50.972;7.856;2023-05-10T06:15:35;12.90;99.90
5556;DHT22;2801;50.972;7.856;2023-05-10T06:18:02;13.30;99.90
5556;DHT22;2801;50.972;7.856;2023-05-10T06:20:29;13.30;99.90
5556;DHT22;2801;50.972;7.856;2023-05-10T06:22:58;13.30;99.90
5556;DHT22;2801;50.972;7.856;2023-05-10T06:25:25;13.30;99.90
5556;DHT22;2801;50.972;7.856;2023-05-10T06:27:52;13.20;99.90
5556;DHT22;2801;50.972;7.856;2023-05-10T06:30:25;13.20;99.90
5556;DHT22;2801;50.972;7.856;2023-05-10T06:32:56;13.10;99.90
5556;DHT22;2801;50.972;7.856;2023-05-10T06:35:23;13.10;99.90
5556;DHT22;2801;50.972;7.856;2023-05-10T06:37:51;13.20;99.90
5556;DHT22;2801;50.972;7.856;2023-05-10T06:40:18;13.10;99.90
5556;DHT22;2801;50.972;7.856;2023-05-10T06:42:46;13.10;99.90
5556;DHT22;2801;50.972;7.856;2023-05-10T06:45:14;13.00;99.90
5556;DHT22;2801;50.972;7.856;2023-05-10T06:47:43;12.90;99.90
5556;DHT22;2801;50.972;7.856;2023-05-10T06:50:10;13.00;99.90
5556;DHT22;2801;50.972;7.856;2023-05-10T06:52:38;13.00;99.90
5556;DHT22;2801;50.972;7.856;2023-05-10T06:55:06;13.10;99.90
5556;DHT22;2801;50.972;7.856;2023-05-10T06:57:33;13.10;99.90
5556;DHT22;2801;50.972;7.856;2023-05-10T07:00:00;13.00;99.90
5556;DHT22;2801;50.972;7.856;2023-05-10T07:02:30;13.00;99.90
5556;DHT22;2801;50.972;7.856;2023-05-10T07:04:57;12.90;99.90
5556;DHT22;2801;50.972;7.856;2023-05-10T07:07:28;12.90;99.90
5556;DHT22;2801;50.972;7.856;2023-05-10T07:09:55;12.80;99.90
5556;DHT22;2801;50.972;7.856;2023-05-10T07:12:24;12.90;99.90
5556;DHT22;2801;50.972;7.856;2023-05-10T07:14:51;13.00;99.90
5556;DHT22;2801;50.972;7.856;2023-05-10T07:17:18;13.00;99.90
5556;DHT22;2801;50.972;7.856;2023-05-10T07:19:45;13.10;99.90
5556;DHT22;2801;50.972;7.856;2023-05-10T07:22:12;13.10;99.90
5556;DHT22;2801;50.972;7.856;2023-05-10T07:24:40;13.10;99.90
5556;DHT22;2801;50.972;7.856;2023-05-10T07:27:07;13.00;99.90
5556;DHT22;2801;50.972;7.856;2023-05-10T07:29:34;13.00;99.90
5556;DHT22;2801;50.972;7.856;2023-05-10T07:32:02;12.90;99.90
5556;DHT22;2801;50.972;7.856;2023-05-10T07:34:29;12.70;99.90
5556;DHT22;2801;50.972;7.856;2023-05-10T07:37:00;12.60;99.90
5556;DHT22;2801;50.972;7.856;2023-05-10T07:39:27;12.50;99.90
5556;DHT22;2801;50.972;7.856;2023-05-10T07:41:55;12.50;99.90
5556;DHT22;2801;50.972;7.856;2023-05-10T07:44:22;12.40;99.90
5556;DHT22;2801;50.972;7.856;2023-05-10T07:46:49;12.40;99.90
5556;DHT22;2801;50.972;7.856;2023-05-10T07:49:17;12.40;99.90
5556;DHT22;2801;50.972;7.856;2023-05-10T07:51:44;12.50;99.90
5556;DHT22;2801;50.972;7.856;2023-05-10T07:54:11;12.50;99.90
5556;DHT22;2801;50.972;7.856;2023-05-10T07:56:39;12.60;99.90
5556;DHT22;2801;50.972;7.856;2023-05-10T07:59:15;12.70;99.90
5556;DHT22;2801;50.972;7.856;2023-05-10T08:01:43;12.80;99.90
5556;DHT22;2801;50.972;7.856;2023-05-10T08:04:11;13.00;99.90
5556;DHT22;2801;50.972;7.856;2023-05-10T08:06:39;13.00;99.90
5556;DHT22;2801;50.972;7.856;2023-05-10T08:09:06;13.00;99.90
5556;DHT22;2801;50.972;7.856;2023-05-10T08:11:34;13.20;99.90
5556;DHT22;2801;50.972;7.856;2023-05-10T08:14:01;13.20;99.90
5556;DHT22;2801;50.972;7.856;2023-05-10T08:16:28;13.20;99.90
5556;DHT22;2801;50.972;7.856;2023-05-10T08:18:55;13.10;99.90
5556;DHT22;2801;50.972;7.856;2023-05-10T08:21:22;13.00;99.90
5556;DHT22;2801;50.972;7.856;2023-05-10T08:23:49;12.90;99.90
5556;DHT22;2801;50.972;7.856;2023-05-10T08:26:16;12.90;99.90
5556;DHT22;2801;50.972;7.856;2023-05-10T08:28:43;12.80;99.90
5556;DHT22;2801;50.972;7.856;2023-05-10T08:31:10;12.80;99.90
5556;DHT22;2801;50.972;7.856;2023-05-10T08:33:38;12.80;99.90
5556;DHT22;2801;50.972;7.856;2023-05-10T08:36:08;12.80;99.90
5556;DHT22;2801;50.972;7.856;2023-05-10T08:38:35;12.80;99.90
5556;DHT22;2801;50.972;7.856;2023-05-10T08:41:02;12.80;99.90
5556;DHT22;2801;50.972;7.856;2023-05-10T08:43:31;12.80;99.90
5556;DHT22;2801;50.972;7.856;2023-05-10T08:46:00;13.00;99.90
5556;DHT22;2801;50.972;7.856;2023-05-10T08:48:34;13.10;99.90
5556;DHT22;2801;50.972;7.856;2023-05-10T08:51:02;13.10;99.90
5556;DHT22;2801;50.972;7.856;2023-05-10T08:53:33;13.00;99.90
5556;DHT22;2801;50.972;7.856;2023-05-10T08:56:03;13.00;99.90
5556;DHT22;2801;50.972;7.856;2023-05-10T08:58:31;13.00;99.90
5556;DHT22;2801;50.972;7.856;2023-05-10T09:00:59;13.00;99.90
5556;DHT22;2801;50.972;7.856;2023-05-10T09:03:27;13.00;99.90
5556;DHT22;2801;50.972;7.856;2023-05-10T09:05:55;13.00;99.90
5556;DHT22;2801;50.972;7.856;2023-05-10T09:08:25;13.00;99.90
5556;DHT22;2801;50.972;7.856;2023-05-10T09:10:54;13.20;99.90
5556;DHT22;2801;50.972;7.856;2023-05-10T09:13:22;13.30;99.90
5556;DHT22;2801;50.972;7.856;2023-05-10T09:15:51;13.40;99.90
5556;DHT22;2801;50.972;7.856;2023-05-10T09:18:19;13.40;99.90
5556;DHT22;2801;50.972;7.856;2023-05-10T09:20:46;13.50;99.90
5556;DHT22;2801;50.972;7.856;2023-05-10T09:23:14;13.60;99.90
5556;DHT22;2801;50.972;7.856;2023-05-10T09:25:42;13.70;99.90
5556;DHT22;2801;50.972;7.856;2023-05-10T09:28:09;13.70;99.90
5556;DHT22;2801;50.972;7.856;2023-05-10T09:30:36;13.80;99.90
5556;DHT22;2801;50.972;7.856;2023-05-10T09:33:04;14.00;99.90
5556;DHT22;2801;50.972;7.856;2023-05-10T09:35:32;14.10;99.90
5556;DHT22;2801;50.972;7.856;2023-05-10T09:38:02;14.20;99.90
5556;DHT22;2801;50.972;7.856;2023-05-10T09:40:31;14.20;99.90
5556;DHT22;2801;50.972;7.856;2023-05-10T09:43:00;14.00;99.90
5556;DHT22;2801;50.972;7.856;2023-05-10T09:45:32;14.00;99.90
5556;DHT22;2801;50.972;7.856;2023-05-10T09:48:04;13.80;99.90
5556;DHT22;2801;50.972;7.856;2023-05-10T09:50:32;13.90;99.90
5556;DHT22;2801;50.972;7.856;2023-05-10T09:53:02;13.90;99.90
5556;DHT22;2801;50.972;7.856;2023-05-10T09:55:40;14.00;99.90
5556;DHT22;2801;50.972;7.856;2023-05-10T09:58:08;14.70;99.90
5556;DHT22;2801;50.972;7.856;2023-05-10T10:00:39;16.00;99.90
5556;DHT22;2801;50.972;7.856;2023-05-10T10:03:21;16.30;99.90
5556;DHT22;2801;50.972;7.856;2023-05-10T10:05:49;16.30;99.90
5556;DHT22;2801;50.972;7.856;2023-05-10T10:08:17;16.40;99.90
5556;DHT22;2801;50.972;7.856;2023-05-10T10:10:44;16.50;99.90
5556;DHT22;2801;50.972;7.856;2023-05-10T10:13:13;16.40;99.90
5556;DHT22;2801;50.972;7.856;2023-05-10T10:15:42;16.30;99.90
5556;DHT22;2801;50.972;7.856;2023-05-10T10:18:14;16.40;99.90
5556;DHT22;2801;50.972;7.856;2023-05-10T10:20:42;16.50;99.90
5556;DHT22;2801;50.972;7.856;2023-05-10T10:23:09;16.80;99.90
5556;DHT22;2801;50.972;7.856;2023-05-10T10:25:37;17.10;99.90
5556;DHT22;2801;50.972;7.856;2023-05-10T10:28:10;17.10;99.90
5556;DHT22;2801;50.972;7.856;2023-05-10T10:30:50;17.00;99.90
5556;DHT22;2801;50.972;7.856;2023-05-10T10:36:07;16.60;99.90
5556;DHT22;2801;50.972;7.856;2023-05-10T10:41:35;16.50;99.90
5556;DHT22;2801;50.972;7.856;2023-05-10T10:49:48;17.40;99.90
5556;DHT22;2801;50.972;7.856;2023-05-10T10:52:34;17.40;99.90
5556;DHT22;2801;50.972;7.856;2023-05-10T10:55:19;17.40;99.90
5556;DHT22;2801;50.972;7.856;2023-05-10T10:57:56;17.40;99.90
5556;DHT22;2801;50.972;7.856;2023-05-10T11:00:32;17.40;99.90
5556;DHT22;2801;50.972;7.856;2023-05-10T11:03:07;17.80;99.90
5556;DHT22;2801;50.972;7.856;2023-05-10T11:08:18;18.50;99.90
5556;DHT22;2801;50.972;7.856;2023-05-10T11:11:10;18.40;99.90
5556;DHT22;2801;50.972;7.856;2023-05-10T11:13:45;18.40;99.90
5556;DHT22;2801;50.972;7.856;2023-05-10T11:16:21;18.20;99.90
5556;DHT22;2801;50.972;7.856;2023-05-10T11:19:02;18.10;99.90
5556;DHT22;2801;50.972;7.856;2023-05-10T11:21:32;17.80;99.90
5556;DHT22;2801;50.972;7.856;2023-05-10T11:24:01;17.30;99.90
5556;DHT22;2801;50.972;7.856;2023-05-10T11:26:34;16.70;99.90
5556;DHT22;2801;50.972;7.856;2023-05-10T11:29:02;16.00;99.90
5556;DHT22;2801;50.972;7.856;2023-05-10T11:31:30;15.50;99.90
5556;DHT22;2801;50.972;7.856;2023-05-10T11:33:59;14.90;99.90
5556;DHT22;2801;50.972;7.856;2023-05-10T11:36:32;14.50;99.90
5556;DHT22;2801;50.972;7.856;2023-05-10T11:39:00;14.10;99.90
5556;DHT22;2801;50.972;7.856;2023-05-10T11:41:29;14.00;99.90
5556;DHT22;2801;50.972;7.856;2023-05-10T11:43:58;13.80;99.90
5556;DHT22;2801;50.972;7.856;2023-05-10T11:46:26;13.80;99.90
5556;DHT22;2801;50.972;7.856;2023-05-10T11:48:59;13.80;99.90
5556;DHT22;2801;50.972;7.856;2023-05-10T11:51:28;13.80;99.90
5556;DHT22;2801;50.972;7.856;2023-05-10T11:53:56;13.90;99.90
5556;DHT22;2801;50.972;7.856;2023-05-10T11:56:23;13.90;99.90
5556;DHT22;2801;50.972;7.856;2023-05-10T11:58:56;14.00;99.90
5556;DHT22;2801;50.972;7.856;2023-05-10T12:01:25;14.10;99.90
5556;DHT22;2801;50.972;7.856;2023-05-10T12:03:55;14.20;99.90
5556;DHT22;2801;50.972;7.856;2023-05-10T12:06:29;14.20;99.90
5556;DHT22;2801;50.972;7.856;2023-05-10T12:08:58;14.20;99.90
5556;DHT22;2801;50.972;7.856;2023-05-10T12:11:27;14.20;99.90
5556;DHT22;2801;50.972;7.856;2023-05-10T12:13:55;14.10;99.90
5556;DHT22;2801;50.972;7.856;2023-05-10T12:16:25;14.10;99.90
5556;DHT22;2801;50.972;7.856;2023-05-10T12:19:00;14.10;99.90
5556;DHT22;2801;50.972;7.856;2023-05-10T12:21:30;14.10;99.90
5556;DHT22;2801;50.972;7.856;2023-05-10T12:24:04;14.20;99.90
5556;DHT22;2801;50.972;7.856;2023-05-10T12:26:31;14.20;99.90
5556;DHT22;2801;50.972;7.856;2023-05-10T12:29:18;14.20;99.90
5556;DHT22;2801;50.972;7.856;2023-05-10T12:34:34;14.50;99.90
5556;DHT22;2801;50.972;7.856;2023-05-10T12:37:03;14.60;99.90
5556;DHT22;2801;50.972;7.856;2023-05-10T12:39:41;14.60;99.90
5556;DHT22;2801;50.972;7.856;2023-05-10T12:42:10;14.60;99.90
5556;DHT22;2801;50.972;7.856;2023-05-10T12:44:38;14.50;99.90
5556;DHT22;2801;50.972;7.856;2023-05-10T12:47:05;14.50;99.90
5556;DHT22;2801;50.972;7.856;2023-05-10T12:49:32;14.60;99.90
5556;DHT22;2801;50.972;7.856;2023-05-10T12:52:00;14.70;99.90
5556;DHT22;2801;50.972;7.856;2023-05-10T12:54:27;14.90;99.90
5556;DHT22;2801;50.972;7.856;2023-05-10T12:56:54;15.00;99.90
5556;DHT22;2801;50.972;7.856;2023-05-10T12:59:21;15.00;99.90
5556;DHT22;2801;50.972;7.856;2023-05-10T13:01:49;15.00;99.90
5556;DHT22;2801;50.972;7.856;2023-05-10T13:04:16;15.10;99.90
5556;DHT22;2801;50.972;7.856;2023-05-10T13:06:43;15.20;99.90
5556;DHT22;2801;50.972;7.856;2023-05-10T13:09:10;15.30;99.90
5556;DHT22;2801;50.972;7.856;2023-05-10T13:11:37;15.30;99.90
5556;DHT22;2801;50.972;7.856;2023-05-10T13:14:04;15.20;99.90
5556;DHT22;2801;50.972;7.856;2023-05-10T13:16:31;15.20;99.90
5556;DHT22;2801;50.972;7.856;2023-05-10T13:18:58;15.10;99.90
5556;DHT22;2801;50.972;7.856;2023-05-10T13:21:26;15.10;99.90
5556;DHT22;2801;50.972;7.856;2023-05-10T13:23:53;15.10;99.90
5556;DHT22;2801;50.972;7.856;2023-05-10T13:26:20;15.20;99.90
5556;DHT22;2801;50.972;7.856;2023-05-10T13:28:47;15.20;99.90
5556;DHT22;2801;50.972;7.856;2023-05-10T13:31:16;15.20;99.90
5556;DHT22;2801;50.972;7.856;2023-05-10T13:33:43;15.20;99.90
5556;DHT22;2801;50.972;7.856;2023-05-10T13:36:09;15.20;99.90
5556;DHT22;2801;50.972;7.856;2023-05-10T13:38:37;15.10;99.90
5556;DHT22;2801;50.972;7.856;2023-05-10T13:41:04;15.10;99.90
5556;DHT22;2801;50.972;7.856;2023-05-10T13:43:31;15.20;99.90
5556;DHT22;2801;50.972;7.856;2023-05-10T13:45:58;15.20;99.90
5556;DHT22;2801;50.972;7.856;2023-05-10T13:48:25;15.40;99.90
5556;DHT22;2801;50.972;7.856;2023-05-10T13:50:52;15.40;99.90
5556;DHT22;2801;50.972;7.856;2023-05-10T13:53:19;15.40;99.90
5556;DHT22;2801;50.972;7.856;2023-05-10T13:55:46;15.50;99.90
5556;DHT22;2801;50.972;7.856;2023-05-10T13:58:13;15.60;99.90
5556;DHT22;2801;50.972;7.856;2023-05-10T14:00:40;15.70;99.90
5556;DHT22;2801;50.972;7.856;2023-05-10T14:03:07;15.80;99.90
5556;DHT22;2801;50.972;7.856;2023-05-10T14:05:37;16.00;99.90
5556;DHT22;2801;50.972;7.856;2023-05-10T14:08:04;16.10;99.90
5556;DHT22;2801;50.972;7.856;2023-05-10T14:10:31;16.20;99.90
5556;DHT22;2801;50.972;7.856;2023-05-10T14:12:58;16.10;99.90
5556;DHT22;2801;50.972;7.856;2023-05-10T14:15:25;16.10;99.90
5556;DHT22;2801;50.972;7.856;2023-05-10T14:17:52;16.10;99.90
5556;DHT22;2801;50.972;7.856;2023-05-10T14:20:19;16.10;99.90
5556;DHT22;2801;50.972;7.856;2023-05-10T14:22:46;16.10;99.90
5556;DHT22;2801;50.972;7.856;2023-05-10T14:25:14;16.20;99.90
5556;DHT22;2801;50.972;7.856;2023-05-10T14:27:42;16.10;99.90
5556;DHT22;2801;50.972;7.856;2023-05-10T14:30:09;16.30;99.90
5556;DHT22;2801;50.972;7.856;2023-05-10T14:32:36;16.30;99.90
5556;DHT22;2801;50.972;7.856;2023-05-10T14:35:04;16.40;99.90
5556;DHT22;2801;50.972;7.856;2023-05-10T14:37:32;16.40;99.90
5556;DHT22;2801;50.972;7.856;2023-05-10T14:39:59;16.20;99.90
5556;DHT22;2801;50.972;7.856;2023-05-10T14:42:26;16.20;99.90
5556;DHT22;2801;50.972;7.856;2023-05-10T14:44:55;16.20;99.90
5556;DHT22;2801;50.972;7.856;2023-05-10T14:47:22;16.20;99.90
5556;DHT22;2801;50.972;7.856;2023-05-10T14:49:49;16.20;99.90
5556;DHT22;2801;50.972;7.856;2023-05-10T14:52:15;16.10;99.90
5556;DHT22;2801;50.972;7.856;2023-05-10T14:54:43;16.00;99.90
5556;DHT22;2801;50.972;7.856;2023-05-10T14:57:10;16.00;99.90
5556;DHT22;2801;50.972;7.856;2023-05-10T14:59:37;16.00;99.90
5556;DHT22;2801;50.972;7.856;2023-05-10T15:02:04;16.00;99.90
5556;DHT22;2801;50.972;7.856;2023-05-10T15:04:31;15.90;99.90
5556;DHT22;2801;50.972;7.856;2023-05-10T15:06:59;16.00;99.90
5556;DHT22;2801;50.972;7.856;2023-05-10T15:09:26;16.10;99.90
5556;DHT22;2801;50.972;7.856;2023-05-10T15:11:54;16.00;99.90
5556;DHT22;2801;50.972;7.856;2023-05-10T15:14:22;16.00;99.90
5556;DHT22;2801;50.972;7.856;2023-05-10T15:16:49;16.00;99.90
5556;DHT22;2801;50.972;7.856;2023-05-10T15:19:16;16.00;99.90
5556;DHT22;2801;50.972;7.856;2023-05-10T15:21:43;16.00;99.90
5556;DHT22;2801;50.972;7.856;2023-05-10T15:24:11;15.90;99.90
5556;DHT22;2801;50.972;7.856;2023-05-10T15:26:38;16.00;99.90
5556;DHT22;2801;50.972;7.856;2023-05-10T15:29:04;16.00;99.90
5556;DHT22;2801;50.972;7.856;2023-05-10T15:31:32;16.00;99.90
5556;DHT22;2801;50.972;7.856;2023-05-10T15:34:01;15.90;99.90
5556;DHT22;2801;50.972;7.856;2023-05-10T15:36:28;15.80;99.90
5556;DHT22;2801;50.972;7.856;2023-05-10T15:38:55;15.80;99.90
5556;DHT22;2801;50.972;7.856;2023-05-10T15:41:22;15.70;99.90
5556;DHT22;2801;50.972;7.856;2023-05-10T15:43:50;15.60;99.90
5556;DHT22;2801;50.972;7.856;2023-05-10T15:46:17;15.50;99.90
5556;DHT22;2801;50.972;7.856;2023-05-10T15:48:44;15.30;99.90
5556;DHT22;2801;50.972;7.856;2023-05-10T15:51:11;15.20;99.90
5556;DHT22;2801;50.972;7.856;2023-05-10T15:53:37;15.20;99.90
5556;DHT22;2801;50.972;7.856;2023-05-10T15:56:18;15.10;99.90
5556;DHT22;2801;50.972;7.856;2023-05-10T15:58:46;15.10;99.90
5556;DHT22;2801;50.972;7.856;2023-05-10T16:01:12;15.00;99.90
5556;DHT22;2801;50.972;7.856;2023-05-10T16:03:39;14.90;99.90
5556;DHT22;2801;50.972;7.856;2023-05-10T16:06:07;14.90;99.90
5556;DHT22;2801;50.972;7.856;2023-05-10T16:08:34;14.80;99.90
5556;DHT22;2801;50.972;7.856;2023-05-10T16:11:01;14.70;99.90
5556;DHT22;2801;50.972;7.856;2023-05-10T16:13:28;14.60;99.90
5556;DHT22;2801;50.972;7.856;2023-05-10T16:15:55;14.40;99.90
5556;DHT22;2801;50.972;7.856;2023-05-10T16:18:25;14.30;99.90
5556;DHT22;2801;50.972;7.856;2023-05-10T16:20:53;14.20;99.90
5556;DHT22;2801;50.972;7.856;2023-05-10T16:23:20;14.10;99.90
5556;DHT22;2801;50.972;7.856;2023-05-10T16:25:47;13.90;99.90
5556;DHT22;2801;50.972;7.856;2023-05-10T16:28:14;13.90;99.90
5556;DHT22;2801;50.972;7.856;2023-05-10T16:30:41;13.80;99.90
5556;DHT22;2801;50.972;7.856;2023-05-10T16:33:08;13.70;99.90
5556;DHT22;2801;50.972;7.856;2023-05-10T16:35:34;13.70;99.90
5556;DHT22;2801;50.972;7.856;2023-05-10T16:38:01;13.60;99.90
5556;DHT22;2801;50.972;7.856;2023-05-10T16:40:29;13.60;99.90
5556;DHT22;2801;50.972;7.856;2023-05-10T16:42:56;13.50;99.90
5556;DHT22;2801;50.972;7.856;2023-05-10T16:45:23;13.50;99.90
5556;DHT22;2801;50.972;7.856;2023-05-10T16:47:51;13.50;99.90
5556;DHT22;2801;50.972;7.856;2023-05-10T16:50:21;13.50;99.90